<?xml version="1.0" encoding="UTF-8" standalone="no" ?>
<gpx xmlns="http://www.topografix.com/GPX/1/1" xmlns:xsi="http://www.w3.org/2001/XMLSchema-instance" xsi:schemaLocation="http://www.topografix.com/GPX/1/1 http://www.topografix.com/GPX/1/1/gpx.xsd" version="1.1" creator="VisuGPX - https://www.visugpx.com">
  <metadata>
    <name>Tour du royan</name>
  </metadata>
  <trk>
    <name><![CDATA[tour de royans -10739734]]></name>
    <extensions>
      <line xmlns="http://www.topografix.com/GPX/gpx_style/0/2">
        <color>0000FF</color>
        <width>4</width>
      </line>
    </extensions>
    <trkseg>
      <trkpt lat="45.04715" lon="5.34047">
        <ele>298</ele>
        <time>2024-05-18T17:20:32Z</time>
      </trkpt>
      <trkpt lat="45.04753" lon="5.34079">
        <ele>297</ele>
        <time>2024-05-18T17:20:54Z</time>
      </trkpt>
      <trkpt lat="45.04768" lon="5.34036">
        <ele>297</ele>
        <time>2024-05-18T17:21:11Z</time>
      </trkpt>
      <trkpt lat="45.04823" lon="5.34036">
        <ele>294</ele>
        <time>2024-05-18T17:21:39Z</time>
      </trkpt>
      <trkpt lat="45.04865" lon="5.34005">
        <ele>292</ele>
        <time>2024-05-18T17:22:02Z</time>
      </trkpt>
      <trkpt lat="45.04932" lon="5.33946">
        <ele>288</ele>
        <time>2024-05-18T17:22:42Z</time>
      </trkpt>
      <trkpt lat="45.0505" lon="5.33853">
        <ele>285</ele>
        <time>2024-05-18T17:23:49Z</time>
      </trkpt>
      <trkpt lat="45.05091" lon="5.33804">
        <ele>286</ele>
        <time>2024-05-18T17:24:16Z</time>
      </trkpt>
      <trkpt lat="45.0512" lon="5.33775">
        <ele>285</ele>
        <time>2024-05-18T17:24:34Z</time>
      </trkpt>
      <trkpt lat="45.05181" lon="5.3374">
        <ele>283</ele>
        <time>2024-05-18T17:25:07Z</time>
      </trkpt>
      <trkpt lat="45.05189" lon="5.33718">
        <ele>283</ele>
        <time>2024-05-18T17:25:16Z</time>
      </trkpt>
      <trkpt lat="45.05251" lon="5.33658">
        <ele>282</ele>
        <time>2024-05-18T17:25:53Z</time>
      </trkpt>
      <trkpt lat="45.05289" lon="5.3365">
        <ele>279</ele>
        <time>2024-05-18T17:26:13Z</time>
      </trkpt>
      <trkpt lat="45.05304" lon="5.3366">
        <ele>277</ele>
        <time>2024-05-18T17:26:21Z</time>
      </trkpt>
      <trkpt lat="45.05327" lon="5.33679">
        <ele>273</ele>
        <time>2024-05-18T17:26:34Z</time>
      </trkpt>
      <trkpt lat="45.05342" lon="5.33706">
        <ele>270</ele>
        <time>2024-05-18T17:26:46Z</time>
      </trkpt>
      <trkpt lat="45.0538" lon="5.33807">
        <ele>266</ele>
        <time>2024-05-18T17:27:27Z</time>
      </trkpt>
      <trkpt lat="45.05484" lon="5.341">
        <ele>265</ele>
        <time>2024-05-18T17:29:23Z</time>
      </trkpt>
      <trkpt lat="45.05604" lon="5.34083">
        <ele>259</ele>
        <time>2024-05-18T17:30:23Z</time>
      </trkpt>
      <trkpt lat="45.05627" lon="5.34051">
        <ele>258</ele>
        <time>2024-05-18T17:30:39Z</time>
      </trkpt>
      <trkpt lat="45.05665" lon="5.34011">
        <ele>262</ele>
        <time>2024-05-18T17:31:03Z</time>
      </trkpt>
      <trkpt lat="45.05713" lon="5.33986">
        <ele>260</ele>
        <time>2024-05-18T17:31:28Z</time>
      </trkpt>
      <trkpt lat="45.05743" lon="5.33977">
        <ele>258</ele>
        <time>2024-05-18T17:31:44Z</time>
      </trkpt>
      <trkpt lat="45.05803" lon="5.33985">
        <ele>257</ele>
        <time>2024-05-18T17:32:14Z</time>
      </trkpt>
      <trkpt lat="45.05852" lon="5.34024">
        <ele>251</ele>
        <time>2024-05-18T17:32:42Z</time>
      </trkpt>
      <trkpt lat="45.05892" lon="5.34028">
        <ele>250</ele>
        <time>2024-05-18T17:33:02Z</time>
      </trkpt>
      <trkpt lat="45.05914" lon="5.34052">
        <ele>245</ele>
        <time>2024-05-18T17:33:16Z</time>
      </trkpt>
      <trkpt lat="45.05943" lon="5.34044">
        <ele>244</ele>
        <time>2024-05-18T17:33:31Z</time>
      </trkpt>
      <trkpt lat="45.05969" lon="5.34035">
        <ele>243</ele>
        <time>2024-05-18T17:33:44Z</time>
      </trkpt>
      <trkpt lat="45.05995" lon="5.34077">
        <ele>234</ele>
        <time>2024-05-18T17:34:04Z</time>
      </trkpt>
      <trkpt lat="45.06002" lon="5.34102">
        <ele>230</ele>
        <time>2024-05-18T17:34:13Z</time>
      </trkpt>
      <trkpt lat="45.05984" lon="5.34144">
        <ele>223</ele>
        <time>2024-05-18T17:34:31Z</time>
      </trkpt>
      <trkpt lat="45.05951" lon="5.34184">
        <ele>216</ele>
        <time>2024-05-18T17:34:53Z</time>
      </trkpt>
      <trkpt lat="45.05957" lon="5.34209">
        <ele>212</ele>
        <time>2024-05-18T17:35:02Z</time>
      </trkpt>
      <trkpt lat="45.0596" lon="5.34236">
        <ele>208</ele>
        <time>2024-05-18T17:35:12Z</time>
      </trkpt>
      <trkpt lat="45.05972" lon="5.34261">
        <ele>205</ele>
        <time>2024-05-18T17:35:22Z</time>
      </trkpt>
      <trkpt lat="45.05974" lon="5.34303">
        <ele>203</ele>
        <time>2024-05-18T17:35:37Z</time>
      </trkpt>
      <trkpt lat="45.05993" lon="5.34335">
        <ele>203</ele>
        <time>2024-05-18T17:35:52Z</time>
      </trkpt>
      <trkpt lat="45.06002" lon="5.34347">
        <ele>203</ele>
        <time>2024-05-18T17:35:58Z</time>
      </trkpt>
      <trkpt lat="45.06028" lon="5.34338">
        <ele>202</ele>
        <time>2024-05-18T17:36:11Z</time>
      </trkpt>
      <trkpt lat="45.06029" lon="5.34387">
        <ele>203</ele>
        <time>2024-05-18T17:36:29Z</time>
      </trkpt>
      <trkpt lat="45.06034" lon="5.34433">
        <ele>206</ele>
        <time>2024-05-18T17:36:45Z</time>
      </trkpt>
      <trkpt lat="45.06034" lon="5.34445">
        <ele>207</ele>
        <time>2024-05-18T17:36:49Z</time>
      </trkpt>
      <trkpt lat="45.06028" lon="5.34472">
        <ele>211</ele>
        <time>2024-05-18T17:36:59Z</time>
      </trkpt>
      <trkpt lat="45.06023" lon="5.34512">
        <ele>217</ele>
        <time>2024-05-18T17:37:14Z</time>
      </trkpt>
      <trkpt lat="45.06025" lon="5.3454">
        <ele>221</ele>
        <time>2024-05-18T17:37:24Z</time>
      </trkpt>
      <trkpt lat="45.06024" lon="5.3457">
        <ele>226</ele>
        <time>2024-05-18T17:37:34Z</time>
      </trkpt>
      <trkpt lat="45.06013" lon="5.34586">
        <ele>230</ele>
        <time>2024-05-18T17:37:42Z</time>
      </trkpt>
      <trkpt lat="45.06006" lon="5.34601">
        <ele>234</ele>
        <time>2024-05-18T17:37:49Z</time>
      </trkpt>
      <trkpt lat="45.06033" lon="5.34673">
        <ele>246</ele>
        <time>2024-05-18T17:38:17Z</time>
      </trkpt>
      <trkpt lat="45.06049" lon="5.34669">
        <ele>244</ele>
        <time>2024-05-18T17:38:26Z</time>
      </trkpt>
      <trkpt lat="45.06055" lon="5.34639">
        <ele>236</ele>
        <time>2024-05-18T17:38:37Z</time>
      </trkpt>
      <trkpt lat="45.06089" lon="5.34602">
        <ele>226</ele>
        <time>2024-05-18T17:38:58Z</time>
      </trkpt>
      <trkpt lat="45.06096" lon="5.3456">
        <ele>221</ele>
        <time>2024-05-18T17:39:13Z</time>
      </trkpt>
      <trkpt lat="45.06103" lon="5.34551">
        <ele>223</ele>
        <time>2024-05-18T17:39:18Z</time>
      </trkpt>
      <trkpt lat="45.06114" lon="5.3456">
        <ele>230</ele>
        <time>2024-05-18T17:39:24Z</time>
      </trkpt>
      <trkpt lat="45.06121" lon="5.34579">
        <ele>237</ele>
        <time>2024-05-18T17:39:32Z</time>
      </trkpt>
      <trkpt lat="45.0613" lon="5.34554">
        <ele>237</ele>
        <time>2024-05-18T17:39:42Z</time>
      </trkpt>
      <trkpt lat="45.06135" lon="5.34567">
        <ele>242</ele>
        <time>2024-05-18T17:39:47Z</time>
      </trkpt>
      <trkpt lat="45.06132" lon="5.34593">
        <ele>247</ele>
        <time>2024-05-18T17:39:56Z</time>
      </trkpt>
      <trkpt lat="45.06134" lon="5.34602">
        <ele>250</ele>
        <time>2024-05-18T17:40:00Z</time>
      </trkpt>
      <trkpt lat="45.06152" lon="5.34612">
        <ele>263</ele>
        <time>2024-05-18T17:40:09Z</time>
      </trkpt>
      <trkpt lat="45.06167" lon="5.34619">
        <ele>273</ele>
        <time>2024-05-18T17:40:17Z</time>
      </trkpt>
      <trkpt lat="45.06151" lon="5.34642">
        <ele>272</ele>
        <time>2024-05-18T17:40:29Z</time>
      </trkpt>
      <trkpt lat="45.06143" lon="5.34662">
        <ele>273</ele>
        <time>2024-05-18T17:40:37Z</time>
      </trkpt>
      <trkpt lat="45.06155" lon="5.34668">
        <ele>282</ele>
        <time>2024-05-18T17:40:43Z</time>
      </trkpt>
      <trkpt lat="45.06144" lon="5.34696">
        <ele>278</ele>
        <time>2024-05-18T17:40:55Z</time>
      </trkpt>
      <trkpt lat="45.06171" lon="5.34689">
        <ele>293</ele>
        <time>2024-05-18T17:41:08Z</time>
      </trkpt>
      <trkpt lat="45.06198" lon="5.34635">
        <ele>297</ele>
        <time>2024-05-18T17:41:32Z</time>
      </trkpt>
      <trkpt lat="45.06228" lon="5.34575">
        <ele>293</ele>
        <time>2024-05-18T17:41:58Z</time>
      </trkpt>
      <trkpt lat="45.0626" lon="5.34551">
        <ele>296</ele>
        <time>2024-05-18T17:42:16Z</time>
      </trkpt>
      <trkpt lat="45.06253" lon="5.34482">
        <ele>266</ele>
        <time>2024-05-18T17:42:40Z</time>
      </trkpt>
      <trkpt lat="45.06303" lon="5.34461">
        <ele>267</ele>
        <time>2024-05-18T17:43:07Z</time>
      </trkpt>
      <trkpt lat="45.06303" lon="5.34483">
        <ele>275</ele>
        <time>2024-05-18T17:43:14Z</time>
      </trkpt>
      <trkpt lat="45.06295" lon="5.34516">
        <ele>288</ele>
        <time>2024-05-18T17:43:27Z</time>
      </trkpt>
      <trkpt lat="45.06316" lon="5.34509">
        <ele>289</ele>
        <time>2024-05-18T17:43:37Z</time>
      </trkpt>
      <trkpt lat="45.0634" lon="5.34513">
        <ele>295</ele>
        <time>2024-05-18T17:43:50Z</time>
      </trkpt>
      <trkpt lat="45.06353" lon="5.34515">
        <ele>299</ele>
        <time>2024-05-18T17:43:56Z</time>
      </trkpt>
      <trkpt lat="45.06353" lon="5.34528">
        <ele>305</ele>
        <time>2024-05-18T17:44:01Z</time>
      </trkpt>
      <trkpt lat="45.06369" lon="5.34524">
        <ele>306</ele>
        <time>2024-05-18T17:44:09Z</time>
      </trkpt>
      <trkpt lat="45.06372" lon="5.34529">
        <ele>309</ele>
        <time>2024-05-18T17:44:11Z</time>
      </trkpt>
      <trkpt lat="45.0635" lon="5.34562">
        <ele>321</ele>
        <time>2024-05-18T17:44:27Z</time>
      </trkpt>
      <trkpt lat="45.06368" lon="5.34564">
        <ele>325</ele>
        <time>2024-05-18T17:44:36Z</time>
      </trkpt>
      <trkpt lat="45.06389" lon="5.34556">
        <ele>325</ele>
        <time>2024-05-18T17:44:47Z</time>
      </trkpt>
      <trkpt lat="45.06461" lon="5.34556">
        <ele>338</ele>
        <time>2024-05-18T17:45:23Z</time>
      </trkpt>
      <trkpt lat="45.06469" lon="5.34579">
        <ele>351</ele>
        <time>2024-05-18T17:45:32Z</time>
      </trkpt>
      <trkpt lat="45.06441" lon="5.34606">
        <ele>359</ele>
        <time>2024-05-18T17:45:49Z</time>
      </trkpt>
      <trkpt lat="45.06448" lon="5.34621">
        <ele>367</ele>
        <time>2024-05-18T17:45:56Z</time>
      </trkpt>
      <trkpt lat="45.06437" lon="5.34643">
        <ele>375</ele>
        <time>2024-05-18T17:46:05Z</time>
      </trkpt>
      <trkpt lat="45.06373" lon="5.3468">
        <ele>377</ele>
        <time>2024-05-18T17:46:40Z</time>
      </trkpt>
      <trkpt lat="45.06351" lon="5.34691">
        <ele>375</ele>
        <time>2024-05-18T17:46:51Z</time>
      </trkpt>
      <trkpt lat="45.06341" lon="5.34711">
        <ele>375</ele>
        <time>2024-05-18T17:47:00Z</time>
      </trkpt>
      <trkpt lat="45.06326" lon="5.34714">
        <ele>370</ele>
        <time>2024-05-18T17:47:08Z</time>
      </trkpt>
      <trkpt lat="45.06302" lon="5.34717">
        <ele>362</ele>
        <time>2024-05-18T17:47:20Z</time>
      </trkpt>
      <trkpt lat="45.06284" lon="5.3472">
        <ele>355</ele>
        <time>2024-05-18T17:47:29Z</time>
      </trkpt>
      <trkpt lat="45.06335" lon="5.3471">
        <ele>373</ele>
        <time>2024-05-18T17:47:54Z</time>
      </trkpt>
      <trkpt lat="45.06345" lon="5.34688">
        <ele>373</ele>
        <time>2024-05-18T17:48:04Z</time>
      </trkpt>
      <trkpt lat="45.06431" lon="5.34645">
        <ele>375</ele>
        <time>2024-05-18T17:48:49Z</time>
      </trkpt>
      <trkpt lat="45.06443" lon="5.34619">
        <ele>365</ele>
        <time>2024-05-18T17:49:00Z</time>
      </trkpt>
      <trkpt lat="45.06437" lon="5.34603">
        <ele>356</ele>
        <time>2024-05-18T17:49:07Z</time>
      </trkpt>
      <trkpt lat="45.06465" lon="5.34576">
        <ele>349</ele>
        <time>2024-05-18T17:49:24Z</time>
      </trkpt>
      <trkpt lat="45.0646" lon="5.34561">
        <ele>340</ele>
        <time>2024-05-18T17:49:30Z</time>
      </trkpt>
      <trkpt lat="45.06479" lon="5.34552">
        <ele>339</ele>
        <time>2024-05-18T17:49:40Z</time>
      </trkpt>
      <trkpt lat="45.06538" lon="5.34571">
        <ele>357</ele>
        <time>2024-05-18T17:50:10Z</time>
      </trkpt>
      <trkpt lat="45.06616" lon="5.34625">
        <ele>388</ele>
        <time>2024-05-18T17:50:53Z</time>
      </trkpt>
      <trkpt lat="45.06688" lon="5.34659">
        <ele>405</ele>
        <time>2024-05-18T17:51:31Z</time>
      </trkpt>
      <trkpt lat="45.06743" lon="5.34667">
        <ele>413</ele>
        <time>2024-05-18T17:51:59Z</time>
      </trkpt>
      <trkpt lat="45.06803" lon="5.34654">
        <ele>415</ele>
        <time>2024-05-18T17:52:29Z</time>
      </trkpt>
      <trkpt lat="45.06873" lon="5.34658">
        <ele>430</ele>
        <time>2024-05-18T17:53:04Z</time>
      </trkpt>
      <trkpt lat="45.06981" lon="5.3463">
        <ele>434</ele>
        <time>2024-05-18T17:53:59Z</time>
      </trkpt>
      <trkpt lat="45.07038" lon="5.34683">
        <ele>461</ele>
        <time>2024-05-18T17:54:33Z</time>
      </trkpt>
      <trkpt lat="45.07097" lon="5.34763">
        <ele>494</ele>
        <time>2024-05-18T17:55:14Z</time>
      </trkpt>
      <trkpt lat="45.07139" lon="5.34837">
        <ele>518</ele>
        <time>2024-05-18T17:55:48Z</time>
      </trkpt>
      <trkpt lat="45.07158" lon="5.3491">
        <ele>531</ele>
        <time>2024-05-18T17:56:15Z</time>
      </trkpt>
      <trkpt lat="45.07154" lon="5.34953">
        <ele>539</ele>
        <time>2024-05-18T17:56:31Z</time>
      </trkpt>
      <trkpt lat="45.0714" lon="5.34981">
        <ele>547</ele>
        <time>2024-05-18T17:56:43Z</time>
      </trkpt>
      <trkpt lat="45.07149" lon="5.34981">
        <ele>545</ele>
        <time>2024-05-18T17:56:47Z</time>
      </trkpt>
      <trkpt lat="45.07165" lon="5.34989">
        <ele>543</ele>
        <time>2024-05-18T17:56:56Z</time>
      </trkpt>
      <trkpt lat="45.07118" lon="5.35045">
        <ele>543</ele>
        <time>2024-05-18T17:57:27Z</time>
      </trkpt>
      <trkpt lat="45.07175" lon="5.35073">
        <ele>531</ele>
        <time>2024-05-18T17:57:57Z</time>
      </trkpt>
      <trkpt lat="45.07332" lon="5.35251">
        <ele>508</ele>
        <time>2024-05-18T17:59:37Z</time>
      </trkpt>
      <trkpt lat="45.07321" lon="5.35311">
        <ele>496</ele>
        <time>2024-05-18T17:59:59Z</time>
      </trkpt>
      <trkpt lat="45.07422" lon="5.35504">
        <ele>504</ele>
        <time>2024-05-18T18:01:24Z</time>
      </trkpt>
      <trkpt lat="45.07417" lon="5.35551">
        <ele>501</ele>
        <time>2024-05-18T18:01:41Z</time>
      </trkpt>
      <trkpt lat="45.07356" lon="5.35634">
        <ele>478</ele>
        <time>2024-05-18T18:02:23Z</time>
      </trkpt>
      <trkpt lat="45.07277" lon="5.35631">
        <ele>458</ele>
        <time>2024-05-18T18:03:03Z</time>
      </trkpt>
      <trkpt lat="45.07175" lon="5.356">
        <ele>435</ele>
        <time>2024-05-18T18:03:55Z</time>
      </trkpt>
      <trkpt lat="45.07132" lon="5.35613">
        <ele>419</ele>
        <time>2024-05-18T18:04:17Z</time>
      </trkpt>
      <trkpt lat="45.0711" lon="5.356">
        <ele>413</ele>
        <time>2024-05-18T18:04:29Z</time>
      </trkpt>
      <trkpt lat="45.07083" lon="5.35613">
        <ele>403</ele>
        <time>2024-05-18T18:04:43Z</time>
      </trkpt>
      <trkpt lat="45.0702" lon="5.3565">
        <ele>387</ele>
        <time>2024-05-18T18:05:17Z</time>
      </trkpt>
      <trkpt lat="45.0695" lon="5.35668">
        <ele>367</ele>
        <time>2024-05-18T18:05:53Z</time>
      </trkpt>
      <trkpt lat="45.06908" lon="5.35692">
        <ele>351</ele>
        <time>2024-05-18T18:06:16Z</time>
      </trkpt>
      <trkpt lat="45.0681" lon="5.35744">
        <ele>329</ele>
        <time>2024-05-18T18:07:08Z</time>
      </trkpt>
      <trkpt lat="45.06754" lon="5.35729">
        <ele>311</ele>
        <time>2024-05-18T18:07:37Z</time>
      </trkpt>
      <trkpt lat="45.06707" lon="5.35706">
        <ele>297</ele>
        <time>2024-05-18T18:08:01Z</time>
      </trkpt>
      <trkpt lat="45.06693" lon="5.35662">
        <ele>295</ele>
        <time>2024-05-18T18:08:19Z</time>
      </trkpt>
      <trkpt lat="45.06603" lon="5.35665">
        <ele>274</ele>
        <time>2024-05-18T18:09:04Z</time>
      </trkpt>
      <trkpt lat="45.06595" lon="5.35645">
        <ele>269</ele>
        <time>2024-05-18T18:09:12Z</time>
      </trkpt>
      <trkpt lat="45.06605" lon="5.35624">
        <ele>268</ele>
        <time>2024-05-18T18:09:21Z</time>
      </trkpt>
      <trkpt lat="45.06571" lon="5.35622">
        <ele>259</ele>
        <time>2024-05-18T18:09:38Z</time>
      </trkpt>
      <trkpt lat="45.06571" lon="5.35592">
        <ele>256</ele>
        <time>2024-05-18T18:09:48Z</time>
      </trkpt>
      <trkpt lat="45.06542" lon="5.35597">
        <ele>249</ele>
        <time>2024-05-18T18:10:03Z</time>
      </trkpt>
      <trkpt lat="45.06525" lon="5.35627">
        <ele>247</ele>
        <time>2024-05-18T18:10:16Z</time>
      </trkpt>
      <trkpt lat="45.06514" lon="5.35583">
        <ele>240</ele>
        <time>2024-05-18T18:10:33Z</time>
      </trkpt>
      <trkpt lat="45.06541" lon="5.35437">
        <ele>244</ele>
        <time>2024-05-18T18:11:26Z</time>
      </trkpt>
      <trkpt lat="45.06528" lon="5.35416">
        <ele>242</ele>
        <time>2024-05-18T18:11:36Z</time>
      </trkpt>
      <trkpt lat="45.06497" lon="5.35401">
        <ele>236</ele>
        <time>2024-05-18T18:11:53Z</time>
      </trkpt>
      <trkpt lat="45.06488" lon="5.35383">
        <ele>242</ele>
        <time>2024-05-18T18:12:00Z</time>
      </trkpt>
      <trkpt lat="45.06469" lon="5.35367">
        <ele>253</ele>
        <time>2024-05-18T18:12:11Z</time>
      </trkpt>
      <trkpt lat="45.06459" lon="5.35329">
        <ele>258</ele>
        <time>2024-05-18T18:12:26Z</time>
      </trkpt>
      <trkpt lat="45.0643" lon="5.35246">
        <ele>252</ele>
        <time>2024-05-18T18:12:59Z</time>
      </trkpt>
      <trkpt lat="45.0637" lon="5.35046">
        <ele>241</ele>
        <time>2024-05-18T18:14:15Z</time>
      </trkpt>
      <trkpt lat="45.06308" lon="5.34985">
        <ele>244</ele>
        <time>2024-05-18T18:14:53Z</time>
      </trkpt>
      <trkpt lat="45.0625" lon="5.34952">
        <ele>251</ele>
        <time>2024-05-18T18:15:24Z</time>
      </trkpt>
      <trkpt lat="45.06179" lon="5.34929">
        <ele>253</ele>
        <time>2024-05-18T18:16:01Z</time>
      </trkpt>
      <trkpt lat="45.06238" lon="5.34971">
        <ele>258</ele>
        <time>2024-05-18T18:16:34Z</time>
      </trkpt>
      <trkpt lat="45.06303" lon="5.3504">
        <ele>262</ele>
        <time>2024-05-18T18:17:15Z</time>
      </trkpt>
      <trkpt lat="45.0634" lon="5.35185">
        <ele>296</ele>
        <time>2024-05-18T18:18:09Z</time>
      </trkpt>
      <trkpt lat="45.06362" lon="5.35381">
        <ele>315</ele>
        <time>2024-05-18T18:19:19Z</time>
      </trkpt>
      <trkpt lat="45.06255" lon="5.35786">
        <ele>365</ele>
        <time>2024-05-18T18:21:52Z</time>
      </trkpt>
      <trkpt lat="45.06168" lon="5.35974">
        <ele>391</ele>
        <time>2024-05-18T18:23:11Z</time>
      </trkpt>
      <trkpt lat="45.0602" lon="5.36113">
        <ele>425</ele>
        <time>2024-05-18T18:24:40Z</time>
      </trkpt>
      <trkpt lat="45.05825" lon="5.36324">
        <ele>463</ele>
        <time>2024-05-18T18:26:43Z</time>
      </trkpt>
      <trkpt lat="45.05802" lon="5.36401">
        <ele>456</ele>
        <time>2024-05-18T18:27:13Z</time>
      </trkpt>
      <trkpt lat="45.05614" lon="5.36381">
        <ele>505</ele>
        <time>2024-05-18T18:28:47Z</time>
      </trkpt>
      <trkpt lat="45.05569" lon="5.36414">
        <ele>502</ele>
        <time>2024-05-18T18:29:12Z</time>
      </trkpt>
      <trkpt lat="45.05443" lon="5.36414">
        <ele>526</ele>
        <time>2024-05-18T18:30:15Z</time>
      </trkpt>
      <trkpt lat="45.05395" lon="5.36472">
        <ele>533</ele>
        <time>2024-05-18T18:30:47Z</time>
      </trkpt>
      <trkpt lat="45.05303" lon="5.36615">
        <ele>522</ele>
        <time>2024-05-18T18:31:55Z</time>
      </trkpt>
      <trkpt lat="45.0534" lon="5.36677">
        <ele>534</ele>
        <time>2024-05-18T18:32:24Z</time>
      </trkpt>
      <trkpt lat="45.05324" lon="5.36837">
        <ele>535</ele>
        <time>2024-05-18T18:33:21Z</time>
      </trkpt>
      <trkpt lat="45.05261" lon="5.36947">
        <ele>547</ele>
        <time>2024-05-18T18:34:11Z</time>
      </trkpt>
      <trkpt lat="45.05283" lon="5.37128">
        <ele>568</ele>
        <time>2024-05-18T18:35:16Z</time>
      </trkpt>
      <trkpt lat="45.0518" lon="5.3744">
        <ele>599</ele>
        <time>2024-05-18T18:37:18Z</time>
      </trkpt>
      <trkpt lat="45.05027" lon="5.3745">
        <ele>599</ele>
        <time>2024-05-18T18:38:35Z</time>
      </trkpt>
      <trkpt lat="45.04915" lon="5.37544">
        <ele>617</ele>
        <time>2024-05-18T18:39:40Z</time>
      </trkpt>
      <trkpt lat="45.0487" lon="5.37743">
        <ele>641</ele>
        <time>2024-05-18T18:40:54Z</time>
      </trkpt>
      <trkpt lat="45.04713" lon="5.38151">
        <ele>723</ele>
        <time>2024-05-18T18:43:38Z</time>
      </trkpt>
      <trkpt lat="45.04654" lon="5.38266">
        <ele>746</ele>
        <time>2024-05-18T18:44:28Z</time>
      </trkpt>
      <trkpt lat="45.04619" lon="5.38279">
        <ele>740</ele>
        <time>2024-05-18T18:44:46Z</time>
      </trkpt>
      <trkpt lat="45.04473" lon="5.38593">
        <ele>789</ele>
        <time>2024-05-18T18:46:59Z</time>
      </trkpt>
      <trkpt lat="45.04448" lon="5.38736">
        <ele>817</ele>
        <time>2024-05-18T18:47:51Z</time>
      </trkpt>
      <trkpt lat="45.0441" lon="5.38777">
        <ele>814</ele>
        <time>2024-05-18T18:48:15Z</time>
      </trkpt>
      <trkpt lat="45.04475" lon="5.38787">
        <ele>845</ele>
        <time>2024-05-18T18:48:48Z</time>
      </trkpt>
      <trkpt lat="45.04603" lon="5.38682">
        <ele>883</ele>
        <time>2024-05-18T18:50:02Z</time>
      </trkpt>
      <trkpt lat="45.04623" lon="5.38784">
        <ele>915</ele>
        <time>2024-05-18T18:50:39Z</time>
      </trkpt>
      <trkpt lat="45.0463" lon="5.38861">
        <ele>919</ele>
        <time>2024-05-18T18:51:07Z</time>
      </trkpt>
      <trkpt lat="45.04635" lon="5.38888">
        <ele>916</ele>
        <time>2024-05-18T18:51:17Z</time>
      </trkpt>
      <trkpt lat="45.04627" lon="5.38906">
        <ele>912</ele>
        <time>2024-05-18T18:51:24Z</time>
      </trkpt>
      <trkpt lat="45.0462" lon="5.38939">
        <ele>917</ele>
        <time>2024-05-18T18:51:36Z</time>
      </trkpt>
      <trkpt lat="45.04635" lon="5.38918">
        <ele>912</ele>
        <time>2024-05-18T18:51:47Z</time>
      </trkpt>
      <trkpt lat="45.04636" lon="5.38938">
        <ele>917</ele>
        <time>2024-05-18T18:51:54Z</time>
      </trkpt>
      <trkpt lat="45.0464" lon="5.38945">
        <ele>918</ele>
        <time>2024-05-18T18:51:57Z</time>
      </trkpt>
      <trkpt lat="45.04656" lon="5.38937">
        <ele>916</ele>
        <time>2024-05-18T18:52:06Z</time>
      </trkpt>
      <trkpt lat="45.04651" lon="5.38949">
        <ele>919</ele>
        <time>2024-05-18T18:52:11Z</time>
      </trkpt>
      <trkpt lat="45.04663" lon="5.38942">
        <ele>917</ele>
        <time>2024-05-18T18:52:17Z</time>
      </trkpt>
      <trkpt lat="45.04659" lon="5.38952">
        <ele>918</ele>
        <time>2024-05-18T18:52:21Z</time>
      </trkpt>
      <trkpt lat="45.04681" lon="5.38925">
        <ele>913</ele>
        <time>2024-05-18T18:52:36Z</time>
      </trkpt>
      <trkpt lat="45.0467" lon="5.38966">
        <ele>917</ele>
        <time>2024-05-18T18:52:51Z</time>
      </trkpt>
      <trkpt lat="45.04687" lon="5.38954">
        <ele>912</ele>
        <time>2024-05-18T18:53:01Z</time>
      </trkpt>
      <trkpt lat="45.04629" lon="5.3902">
        <ele>950</ele>
        <time>2024-05-18T18:53:38Z</time>
      </trkpt>
      <trkpt lat="45.04603" lon="5.39035">
        <ele>976</ele>
        <time>2024-05-18T18:53:52Z</time>
      </trkpt>
      <trkpt lat="45.04619" lon="5.39031">
        <ele>963</ele>
        <time>2024-05-18T18:54:00Z</time>
      </trkpt>
      <trkpt lat="45.04604" lon="5.39048">
        <ele>986</ele>
        <time>2024-05-18T18:54:10Z</time>
      </trkpt>
      <trkpt lat="45.04621" lon="5.39046">
        <ele>973</ele>
        <time>2024-05-18T18:54:18Z</time>
      </trkpt>
      <trkpt lat="45.04608" lon="5.39068">
        <ele>1000</ele>
        <time>2024-05-18T18:54:29Z</time>
      </trkpt>
      <trkpt lat="45.04616" lon="5.39075">
        <ele>999</ele>
        <time>2024-05-18T18:54:33Z</time>
      </trkpt>
      <trkpt lat="45.04604" lon="5.39099">
        <ele>1026</ele>
        <time>2024-05-18T18:54:44Z</time>
      </trkpt>
      <trkpt lat="45.04581" lon="5.39128">
        <ele>1061</ele>
        <time>2024-05-18T18:54:59Z</time>
      </trkpt>
      <trkpt lat="45.04604" lon="5.39117">
        <ele>1036</ele>
        <time>2024-05-18T18:55:11Z</time>
      </trkpt>
      <trkpt lat="45.04653" lon="5.39063">
        <ele>962</ele>
        <time>2024-05-18T18:55:42Z</time>
      </trkpt>
      <trkpt lat="45.04657" lon="5.3904">
        <ele>946</ele>
        <time>2024-05-18T18:55:51Z</time>
      </trkpt>
      <trkpt lat="45.04671" lon="5.39051">
        <ele>941</ele>
        <time>2024-05-18T18:55:59Z</time>
      </trkpt>
      <trkpt lat="45.04689" lon="5.39116">
        <ele>954</ele>
        <time>2024-05-18T18:56:23Z</time>
      </trkpt>
      <trkpt lat="45.04636" lon="5.39117">
        <ele>1009</ele>
        <time>2024-05-18T18:56:50Z</time>
      </trkpt>
      <trkpt lat="45.04607" lon="5.3915">
        <ele>1053</ele>
        <time>2024-05-18T18:57:08Z</time>
      </trkpt>
      <trkpt lat="45.04583" lon="5.39251">
        <ele>1110</ele>
        <time>2024-05-18T18:57:46Z</time>
      </trkpt>
      <trkpt lat="45.04489" lon="5.39155">
        <ele>1145</ele>
        <time>2024-05-18T18:58:44Z</time>
      </trkpt>
      <trkpt lat="45.0445" lon="5.39144">
        <ele>1154</ele>
        <time>2024-05-18T18:59:04Z</time>
      </trkpt>
      <trkpt lat="45.04466" lon="5.39224">
        <ele>1166</ele>
        <time>2024-05-18T18:59:33Z</time>
      </trkpt>
      <trkpt lat="45.04431" lon="5.39373">
        <ele>1182</ele>
        <time>2024-05-18T19:00:29Z</time>
      </trkpt>
      <trkpt lat="45.04405" lon="5.39337">
        <ele>1183</ele>
        <time>2024-05-18T19:00:47Z</time>
      </trkpt>
      <trkpt lat="45.04353" lon="5.39305">
        <ele>1177</ele>
        <time>2024-05-18T19:01:16Z</time>
      </trkpt>
      <trkpt lat="45.04346" lon="5.39323">
        <ele>1181</ele>
        <time>2024-05-18T19:01:23Z</time>
      </trkpt>
      <trkpt lat="45.04322" lon="5.39331">
        <ele>1179</ele>
        <time>2024-05-18T19:01:35Z</time>
      </trkpt>
      <trkpt lat="45.04349" lon="5.39349">
        <ele>1188</ele>
        <time>2024-05-18T19:01:50Z</time>
      </trkpt>
      <trkpt lat="45.04346" lon="5.39379">
        <ele>1198</ele>
        <time>2024-05-18T19:02:01Z</time>
      </trkpt>
      <trkpt lat="45.04335" lon="5.39362">
        <ele>1193</ele>
        <time>2024-05-18T19:02:09Z</time>
      </trkpt>
      <trkpt lat="45.04362" lon="5.39488">
        <ele>1216</ele>
        <time>2024-05-18T19:02:55Z</time>
      </trkpt>
      <trkpt lat="45.04336" lon="5.39566">
        <ele>1226</ele>
        <time>2024-05-18T19:03:26Z</time>
      </trkpt>
      <trkpt lat="45.04283" lon="5.39654">
        <ele>1229</ele>
        <time>2024-05-18T19:04:07Z</time>
      </trkpt>
      <trkpt lat="45.04287" lon="5.39758">
        <ele>1240</ele>
        <time>2024-05-18T19:04:44Z</time>
      </trkpt>
      <trkpt lat="45.04356" lon="5.3989">
        <ele>1233</ele>
        <time>2024-05-18T19:05:42Z</time>
      </trkpt>
      <trkpt lat="45.04349" lon="5.39907">
        <ele>1240</ele>
        <time>2024-05-18T19:05:49Z</time>
      </trkpt>
      <trkpt lat="45.04326" lon="5.39907">
        <ele>1251</ele>
        <time>2024-05-18T19:06:00Z</time>
      </trkpt>
      <trkpt lat="45.04327" lon="5.39949">
        <ele>1252</ele>
        <time>2024-05-18T19:06:15Z</time>
      </trkpt>
      <trkpt lat="45.04322" lon="5.39979">
        <ele>1251</ele>
        <time>2024-05-18T19:06:26Z</time>
      </trkpt>
      <trkpt lat="45.04297" lon="5.39997">
        <ele>1250</ele>
        <time>2024-05-18T19:06:40Z</time>
      </trkpt>
      <trkpt lat="45.04285" lon="5.40028">
        <ele>1245</ele>
        <time>2024-05-18T19:06:53Z</time>
      </trkpt>
      <trkpt lat="45.04301" lon="5.4007">
        <ele>1240</ele>
        <time>2024-05-18T19:07:09Z</time>
      </trkpt>
      <trkpt lat="45.04335" lon="5.4009">
        <ele>1239</ele>
        <time>2024-05-18T19:07:28Z</time>
      </trkpt>
      <trkpt lat="45.04352" lon="5.40099">
        <ele>1232</ele>
        <time>2024-05-18T19:07:37Z</time>
      </trkpt>
      <trkpt lat="45.04373" lon="5.40118">
        <ele>1223</ele>
        <time>2024-05-18T19:07:49Z</time>
      </trkpt>
      <trkpt lat="45.0438" lon="5.40155">
        <ele>1215</ele>
        <time>2024-05-18T19:08:03Z</time>
      </trkpt>
      <trkpt lat="45.04353" lon="5.40174">
        <ele>1216</ele>
        <time>2024-05-18T19:08:18Z</time>
      </trkpt>
      <trkpt lat="45.04284" lon="5.4026">
        <ele>1200</ele>
        <time>2024-05-18T19:09:04Z</time>
      </trkpt>
      <trkpt lat="45.04255" lon="5.40317">
        <ele>1190</ele>
        <time>2024-05-18T19:09:29Z</time>
      </trkpt>
      <trkpt lat="45.04238" lon="5.40389">
        <ele>1179</ele>
        <time>2024-05-18T19:09:56Z</time>
      </trkpt>
      <trkpt lat="45.04241" lon="5.40532">
        <ele>1162</ele>
        <time>2024-05-18T19:10:46Z</time>
      </trkpt>
      <trkpt lat="45.04221" lon="5.40655">
        <ele>1151</ele>
        <time>2024-05-18T19:11:31Z</time>
      </trkpt>
      <trkpt lat="45.04304" lon="5.40813">
        <ele>1142</ele>
        <time>2024-05-18T19:12:41Z</time>
      </trkpt>
      <trkpt lat="45.0427" lon="5.40915">
        <ele>1143</ele>
        <time>2024-05-18T19:13:20Z</time>
      </trkpt>
      <trkpt lat="45.0423" lon="5.40882">
        <ele>1144</ele>
        <time>2024-05-18T19:13:44Z</time>
      </trkpt>
      <trkpt lat="45.04221" lon="5.40759">
        <ele>1144</ele>
        <time>2024-05-18T19:14:27Z</time>
      </trkpt>
      <trkpt lat="45.04185" lon="5.4069">
        <ele>1147</ele>
        <time>2024-05-18T19:14:58Z</time>
      </trkpt>
      <trkpt lat="45.04102" lon="5.40716">
        <ele>1142</ele>
        <time>2024-05-18T19:15:40Z</time>
      </trkpt>
      <trkpt lat="45.04032" lon="5.40836">
        <ele>1142</ele>
        <time>2024-05-18T19:16:35Z</time>
      </trkpt>
      <trkpt lat="45.03882" lon="5.40905">
        <ele>1149</ele>
        <time>2024-05-18T19:17:54Z</time>
      </trkpt>
      <trkpt lat="45.03877" lon="5.408">
        <ele>1148</ele>
        <time>2024-05-18T19:18:31Z</time>
      </trkpt>
      <trkpt lat="45.03709" lon="5.40787">
        <ele>1158</ele>
        <time>2024-05-18T19:19:56Z</time>
      </trkpt>
      <trkpt lat="45.03601" lon="5.40558">
        <ele>1160</ele>
        <time>2024-05-18T19:21:33Z</time>
      </trkpt>
      <trkpt lat="45.03572" lon="5.40438">
        <ele>1161</ele>
        <time>2024-05-18T19:22:18Z</time>
      </trkpt>
      <trkpt lat="45.03444" lon="5.40328">
        <ele>1161</ele>
        <time>2024-05-18T19:23:33Z</time>
      </trkpt>
      <trkpt lat="45.03318" lon="5.40068">
        <ele>1179</ele>
        <time>2024-05-18T19:25:24Z</time>
      </trkpt>
      <trkpt lat="45.03332" lon="5.40037">
        <ele>1177</ele>
        <time>2024-05-18T19:25:37Z</time>
      </trkpt>
      <trkpt lat="45.03332" lon="5.39999">
        <ele>1173</ele>
        <time>2024-05-18T19:25:51Z</time>
      </trkpt>
      <trkpt lat="45.03447" lon="5.39899">
        <ele>1150</ele>
        <time>2024-05-18T19:26:58Z</time>
      </trkpt>
      <trkpt lat="45.03332" lon="5.3992">
        <ele>1118</ele>
        <time>2024-05-18T19:27:56Z</time>
      </trkpt>
      <trkpt lat="45.03444" lon="5.39836">
        <ele>1105</ele>
        <time>2024-05-18T19:29:00Z</time>
      </trkpt>
      <trkpt lat="45.03565" lon="5.39818">
        <ele>1129</ele>
        <time>2024-05-18T19:30:01Z</time>
      </trkpt>
      <trkpt lat="45.03691" lon="5.39731">
        <ele>1133</ele>
        <time>2024-05-18T19:31:11Z</time>
      </trkpt>
      <trkpt lat="45.03833" lon="5.39486">
        <ele>1233</ele>
        <time>2024-05-18T19:33:03Z</time>
      </trkpt>
      <trkpt lat="45.04003" lon="5.39233">
        <ele>963</ele>
        <time>2024-05-18T19:35:06Z</time>
      </trkpt>
      <trkpt lat="45.04066" lon="5.39144">
        <ele>873</ele>
        <time>2024-05-18T19:35:51Z</time>
      </trkpt>
      <trkpt lat="45.04172" lon="5.39144">
        <ele>885</ele>
        <time>2024-05-18T19:36:44Z</time>
      </trkpt>
      <trkpt lat="45.04388" lon="5.38888">
        <ele>841</ele>
        <time>2024-05-18T19:39:05Z</time>
      </trkpt>
      <trkpt lat="45.04405" lon="5.38798">
        <ele>820</ele>
        <time>2024-05-18T19:39:38Z</time>
      </trkpt>
      <trkpt lat="45.04451" lon="5.38756">
        <ele>824</ele>
        <time>2024-05-18T19:40:05Z</time>
      </trkpt>
      <trkpt lat="45.04485" lon="5.38563">
        <ele>788</ele>
        <time>2024-05-18T19:41:15Z</time>
      </trkpt>
      <trkpt lat="45.04623" lon="5.38291">
        <ele>747</ele>
        <time>2024-05-18T19:43:14Z</time>
      </trkpt>
      <trkpt lat="45.0457" lon="5.38221">
        <ele>704</ele>
        <time>2024-05-18T19:43:50Z</time>
      </trkpt>
      <trkpt lat="45.04555" lon="5.38235">
        <ele>701</ele>
        <time>2024-05-18T19:43:59Z</time>
      </trkpt>
      <trkpt lat="45.04443" lon="5.38321">
        <ele>680</ele>
        <time>2024-05-18T19:45:03Z</time>
      </trkpt>
      <trkpt lat="45.04304" lon="5.38364">
        <ele>643</ele>
        <time>2024-05-18T19:46:14Z</time>
      </trkpt>
      <trkpt lat="45.04278" lon="5.38404">
        <ele>642</ele>
        <time>2024-05-18T19:46:33Z</time>
      </trkpt>
      <trkpt lat="45.04179" lon="5.38423">
        <ele>606</ele>
        <time>2024-05-18T19:47:23Z</time>
      </trkpt>
      <trkpt lat="45.04122" lon="5.3839">
        <ele>580</ele>
        <time>2024-05-18T19:47:54Z</time>
      </trkpt>
      <trkpt lat="45.04098" lon="5.38331">
        <ele>564</ele>
        <time>2024-05-18T19:48:18Z</time>
      </trkpt>
      <trkpt lat="45.04104" lon="5.38314">
        <ele>562</ele>
        <time>2024-05-18T19:48:25Z</time>
      </trkpt>
      <trkpt lat="45.04134" lon="5.38313">
        <ele>564</ele>
        <time>2024-05-18T19:48:40Z</time>
      </trkpt>
      <trkpt lat="45.04152" lon="5.3829">
        <ele>561</ele>
        <time>2024-05-18T19:48:52Z</time>
      </trkpt>
      <trkpt lat="45.04155" lon="5.38273">
        <ele>558</ele>
        <time>2024-05-18T19:48:58Z</time>
      </trkpt>
      <trkpt lat="45.04109" lon="5.38286">
        <ele>557</ele>
        <time>2024-05-18T19:49:22Z</time>
      </trkpt>
      <trkpt lat="45.04057" lon="5.38233">
        <ele>539</ele>
        <time>2024-05-18T19:49:54Z</time>
      </trkpt>
      <trkpt lat="45.04042" lon="5.38228">
        <ele>535</ele>
        <time>2024-05-18T19:50:01Z</time>
      </trkpt>
      <trkpt lat="45.04023" lon="5.38246">
        <ele>534</ele>
        <time>2024-05-18T19:50:13Z</time>
      </trkpt>
      <trkpt lat="45.04023" lon="5.38283">
        <ele>539</ele>
        <time>2024-05-18T19:50:26Z</time>
      </trkpt>
      <trkpt lat="45.04018" lon="5.38313">
        <ele>540</ele>
        <time>2024-05-18T19:50:37Z</time>
      </trkpt>
      <trkpt lat="45.03997" lon="5.38347">
        <ele>538</ele>
        <time>2024-05-18T19:50:53Z</time>
      </trkpt>
      <trkpt lat="45.03973" lon="5.38381">
        <ele>540</ele>
        <time>2024-05-18T19:51:10Z</time>
      </trkpt>
      <trkpt lat="45.03932" lon="5.38127">
        <ele>479</ele>
        <time>2024-05-18T19:52:42Z</time>
      </trkpt>
      <trkpt lat="45.03919" lon="5.38101">
        <ele>467</ele>
        <time>2024-05-18T19:52:53Z</time>
      </trkpt>
      <trkpt lat="45.03924" lon="5.3808">
        <ele>463</ele>
        <time>2024-05-18T19:53:01Z</time>
      </trkpt>
      <trkpt lat="45.03943" lon="5.3806">
        <ele>462</ele>
        <time>2024-05-18T19:53:13Z</time>
      </trkpt>
      <trkpt lat="45.03944" lon="5.38024">
        <ele>449</ele>
        <time>2024-05-18T19:53:26Z</time>
      </trkpt>
      <trkpt lat="45.03977" lon="5.37995">
        <ele>447</ele>
        <time>2024-05-18T19:53:45Z</time>
      </trkpt>
      <trkpt lat="45.04019" lon="5.38002">
        <ele>455</ele>
        <time>2024-05-18T19:54:06Z</time>
      </trkpt>
      <trkpt lat="45.03996" lon="5.3796">
        <ele>438</ele>
        <time>2024-05-18T19:54:25Z</time>
      </trkpt>
      <trkpt lat="45.03953" lon="5.37924">
        <ele>413</ele>
        <time>2024-05-18T19:54:50Z</time>
      </trkpt>
      <trkpt lat="45.03907" lon="5.37925">
        <ele>400</ele>
        <time>2024-05-18T19:55:13Z</time>
      </trkpt>
      <trkpt lat="45.03876" lon="5.37958">
        <ele>394</ele>
        <time>2024-05-18T19:55:33Z</time>
      </trkpt>
      <trkpt lat="45.03899" lon="5.37877">
        <ele>378</ele>
        <time>2024-05-18T19:56:03Z</time>
      </trkpt>
      <trkpt lat="45.03912" lon="5.37824">
        <ele>363</ele>
        <time>2024-05-18T19:56:23Z</time>
      </trkpt>
      <trkpt lat="45.03933" lon="5.37801">
        <ele>357</ele>
        <time>2024-05-18T19:56:37Z</time>
      </trkpt>
      <trkpt lat="45.03905" lon="5.37797">
        <ele>349</ele>
        <time>2024-05-18T19:56:51Z</time>
      </trkpt>
      <trkpt lat="45.03864" lon="5.37836">
        <ele>347</ele>
        <time>2024-05-18T19:57:15Z</time>
      </trkpt>
      <trkpt lat="45.03826" lon="5.37849">
        <ele>336</ele>
        <time>2024-05-18T19:57:35Z</time>
      </trkpt>
      <trkpt lat="45.03774" lon="5.37907">
        <ele>331</ele>
        <time>2024-05-18T19:58:08Z</time>
      </trkpt>
      <trkpt lat="45.03752" lon="5.37931">
        <ele>328</ele>
        <time>2024-05-18T19:58:22Z</time>
      </trkpt>
      <trkpt lat="45.03756" lon="5.37913">
        <ele>325</ele>
        <time>2024-05-18T19:58:29Z</time>
      </trkpt>
      <trkpt lat="45.03903" lon="5.3771">
        <ele>321</ele>
        <time>2024-05-18T20:00:11Z</time>
      </trkpt>
      <trkpt lat="45.03983" lon="5.37655">
        <ele>323</ele>
        <time>2024-05-18T20:00:56Z</time>
      </trkpt>
      <trkpt lat="45.04011" lon="5.37659">
        <ele>329</ele>
        <time>2024-05-18T20:01:10Z</time>
      </trkpt>
      <trkpt lat="45.04081" lon="5.37586">
        <ele>323</ele>
        <time>2024-05-18T20:01:53Z</time>
      </trkpt>
      <trkpt lat="45.04194" lon="5.37527">
        <ele>327</ele>
        <time>2024-05-18T20:02:54Z</time>
      </trkpt>
      <trkpt lat="45.04187" lon="5.37486">
        <ele>314</ele>
        <time>2024-05-18T20:03:09Z</time>
      </trkpt>
      <trkpt lat="45.04204" lon="5.37435">
        <ele>311</ele>
        <time>2024-05-18T20:03:29Z</time>
      </trkpt>
      <trkpt lat="45.04255" lon="5.3746">
        <ele>319</ele>
        <time>2024-05-18T20:03:56Z</time>
      </trkpt>
      <trkpt lat="45.04293" lon="5.37432">
        <ele>321</ele>
        <time>2024-05-18T20:04:17Z</time>
      </trkpt>
      <trkpt lat="45.04347" lon="5.37458">
        <ele>351</ele>
        <time>2024-05-18T20:04:46Z</time>
      </trkpt>
      <trkpt lat="45.04361" lon="5.37391">
        <ele>331</ele>
        <time>2024-05-18T20:05:10Z</time>
      </trkpt>
      <trkpt lat="45.04412" lon="5.3735">
        <ele>336</ele>
        <time>2024-05-18T20:05:40Z</time>
      </trkpt>
      <trkpt lat="45.04443" lon="5.37354">
        <ele>351</ele>
        <time>2024-05-18T20:05:55Z</time>
      </trkpt>
      <trkpt lat="45.04461" lon="5.37325">
        <ele>348</ele>
        <time>2024-05-18T20:06:09Z</time>
      </trkpt>
      <trkpt lat="45.04456" lon="5.37312">
        <ele>343</ele>
        <time>2024-05-18T20:06:14Z</time>
      </trkpt>
      <trkpt lat="45.04468" lon="5.37272">
        <ele>341</ele>
        <time>2024-05-18T20:06:29Z</time>
      </trkpt>
      <trkpt lat="45.04497" lon="5.37253">
        <ele>351</ele>
        <time>2024-05-18T20:06:45Z</time>
      </trkpt>
      <trkpt lat="45.04494" lon="5.37211">
        <ele>343</ele>
        <time>2024-05-18T20:07:00Z</time>
      </trkpt>
      <trkpt lat="45.04501" lon="5.37176">
        <ele>340</ele>
        <time>2024-05-18T20:07:13Z</time>
      </trkpt>
      <trkpt lat="45.04521" lon="5.37163">
        <ele>350</ele>
        <time>2024-05-18T20:07:24Z</time>
      </trkpt>
      <trkpt lat="45.04543" lon="5.37156">
        <ele>363</ele>
        <time>2024-05-18T20:07:36Z</time>
      </trkpt>
      <trkpt lat="45.0454" lon="5.37103">
        <ele>369</ele>
        <time>2024-05-18T20:07:54Z</time>
      </trkpt>
      <trkpt lat="45.04508" lon="5.37073">
        <ele>354</ele>
        <time>2024-05-18T20:08:14Z</time>
      </trkpt>
      <trkpt lat="45.04503" lon="5.36992">
        <ele>366</ele>
        <time>2024-05-18T20:08:42Z</time>
      </trkpt>
      <trkpt lat="45.04507" lon="5.36913">
        <ele>362</ele>
        <time>2024-05-18T20:09:10Z</time>
      </trkpt>
      <trkpt lat="45.04603" lon="5.36771">
        <ele>371</ele>
        <time>2024-05-18T20:10:20Z</time>
      </trkpt>
      <trkpt lat="45.04691" lon="5.36792">
        <ele>391</ele>
        <time>2024-05-18T20:11:04Z</time>
      </trkpt>
      <trkpt lat="45.04781" lon="5.36791">
        <ele>400</ele>
        <time>2024-05-18T20:11:49Z</time>
      </trkpt>
      <trkpt lat="45.04821" lon="5.36798">
        <ele>408</ele>
        <time>2024-05-18T20:12:10Z</time>
      </trkpt>
      <trkpt lat="45.04802" lon="5.36756">
        <ele>397</ele>
        <time>2024-05-18T20:12:27Z</time>
      </trkpt>
      <trkpt lat="45.04771" lon="5.36683">
        <ele>381</ele>
        <time>2024-05-18T20:12:57Z</time>
      </trkpt>
      <trkpt lat="45.04772" lon="5.36645">
        <ele>377</ele>
        <time>2024-05-18T20:13:11Z</time>
      </trkpt>
      <trkpt lat="45.04817" lon="5.36637">
        <ele>387</ele>
        <time>2024-05-18T20:13:34Z</time>
      </trkpt>
      <trkpt lat="45.04872" lon="5.36623">
        <ele>392</ele>
        <time>2024-05-18T20:14:02Z</time>
      </trkpt>
      <trkpt lat="45.04945" lon="5.36574">
        <ele>388</ele>
        <time>2024-05-18T20:14:42Z</time>
      </trkpt>
      <trkpt lat="45.0496" lon="5.36472">
        <ele>369</ele>
        <time>2024-05-18T20:15:19Z</time>
      </trkpt>
      <trkpt lat="45.04982" lon="5.36448">
        <ele>369</ele>
        <time>2024-05-18T20:15:33Z</time>
      </trkpt>
      <trkpt lat="45.0504" lon="5.36417">
        <ele>375</ele>
        <time>2024-05-18T20:16:04Z</time>
      </trkpt>
      <trkpt lat="45.04974" lon="5.36323">
        <ele>368</ele>
        <time>2024-05-18T20:16:51Z</time>
      </trkpt>
      <trkpt lat="45.04877" lon="5.36313">
        <ele>345</ele>
        <time>2024-05-18T20:17:39Z</time>
      </trkpt>
      <trkpt lat="45.04837" lon="5.36293">
        <ele>335</ele>
        <time>2024-05-18T20:18:00Z</time>
      </trkpt>
      <trkpt lat="45.04792" lon="5.36304">
        <ele>326</ele>
        <time>2024-05-18T20:18:23Z</time>
      </trkpt>
      <trkpt lat="45.04826" lon="5.36357">
        <ele>336</ele>
        <time>2024-05-18T20:18:49Z</time>
      </trkpt>
      <trkpt lat="45.04757" lon="5.36291">
        <ele>317</ele>
        <time>2024-05-18T20:19:30Z</time>
      </trkpt>
      <trkpt lat="45.04815" lon="5.36214">
        <ele>326</ele>
        <time>2024-05-18T20:20:10Z</time>
      </trkpt>
      <trkpt lat="45.04805" lon="5.36208">
        <ele>323</ele>
        <time>2024-05-18T20:20:16Z</time>
      </trkpt>
      <trkpt lat="45.04767" lon="5.36241">
        <ele>314</ele>
        <time>2024-05-18T20:20:38Z</time>
      </trkpt>
      <trkpt lat="45.04706" lon="5.36266">
        <ele>302</ele>
        <time>2024-05-18T20:21:10Z</time>
      </trkpt>
      <trkpt lat="45.04699" lon="5.36296">
        <ele>304</ele>
        <time>2024-05-18T20:21:21Z</time>
      </trkpt>
      <trkpt lat="45.04694" lon="5.36261">
        <ele>298</ele>
        <time>2024-05-18T20:21:33Z</time>
      </trkpt>
      <trkpt lat="45.0473" lon="5.36216">
        <ele>302</ele>
        <time>2024-05-18T20:21:57Z</time>
      </trkpt>
      <trkpt lat="45.0468" lon="5.36241">
        <ele>293</ele>
        <time>2024-05-18T20:22:24Z</time>
      </trkpt>
      <trkpt lat="45.04646" lon="5.36244">
        <ele>296</ele>
        <time>2024-05-18T20:22:41Z</time>
      </trkpt>
      <trkpt lat="45.04631" lon="5.36214">
        <ele>301</ele>
        <time>2024-05-18T20:22:54Z</time>
      </trkpt>
      <trkpt lat="45.04642" lon="5.36177">
        <ele>298</ele>
        <time>2024-05-18T20:23:08Z</time>
      </trkpt>
      <trkpt lat="45.04647" lon="5.36078">
        <ele>297</ele>
        <time>2024-05-18T20:23:43Z</time>
      </trkpt>
      <trkpt lat="45.0461" lon="5.35977">
        <ele>309</ele>
        <time>2024-05-18T20:24:24Z</time>
      </trkpt>
      <trkpt lat="45.04575" lon="5.35823">
        <ele>318</ele>
        <time>2024-05-18T20:25:21Z</time>
      </trkpt>
      <trkpt lat="45.04561" lon="5.35974">
        <ele>332</ele>
        <time>2024-05-18T20:26:15Z</time>
      </trkpt>
      <trkpt lat="45.04524" lon="5.36012">
        <ele>360</ele>
        <time>2024-05-18T20:26:37Z</time>
      </trkpt>
      <trkpt lat="45.04542" lon="5.36109">
        <ele>353</ele>
        <time>2024-05-18T20:27:13Z</time>
      </trkpt>
      <trkpt lat="45.04537" lon="5.36144">
        <ele>355</ele>
        <time>2024-05-18T20:27:26Z</time>
      </trkpt>
      <trkpt lat="45.04468" lon="5.36216">
        <ele>373</ele>
        <time>2024-05-18T20:28:08Z</time>
      </trkpt>
      <trkpt lat="45.04399" lon="5.36211">
        <ele>398</ele>
        <time>2024-05-18T20:28:43Z</time>
      </trkpt>
      <trkpt lat="45.04334" lon="5.36279">
        <ele>410</ele>
        <time>2024-05-18T20:29:23Z</time>
      </trkpt>
      <trkpt lat="45.04235" lon="5.36498">
        <ele>448</ele>
        <time>2024-05-18T20:30:55Z</time>
      </trkpt>
      <trkpt lat="45.04223" lon="5.36361">
        <ele>472</ele>
        <time>2024-05-18T20:31:44Z</time>
      </trkpt>
      <trkpt lat="45.04199" lon="5.36278">
        <ele>491</ele>
        <time>2024-05-18T20:32:16Z</time>
      </trkpt>
      <trkpt lat="45.04199" lon="5.36213">
        <ele>496</ele>
        <time>2024-05-18T20:32:39Z</time>
      </trkpt>
      <trkpt lat="45.04216" lon="5.36155">
        <ele>496</ele>
        <time>2024-05-18T20:33:01Z</time>
      </trkpt>
      <trkpt lat="45.04247" lon="5.36044">
        <ele>505</ele>
        <time>2024-05-18T20:33:43Z</time>
      </trkpt>
      <trkpt lat="45.04287" lon="5.35999">
        <ele>496</ele>
        <time>2024-05-18T20:34:09Z</time>
      </trkpt>
      <trkpt lat="45.04266" lon="5.35865">
        <ele>512</ele>
        <time>2024-05-18T20:34:57Z</time>
      </trkpt>
      <trkpt lat="45.04224" lon="5.35771">
        <ele>545</ele>
        <time>2024-05-18T20:35:37Z</time>
      </trkpt>
      <trkpt lat="45.0416" lon="5.35636">
        <ele>642</ele>
        <time>2024-05-18T20:36:34Z</time>
      </trkpt>
      <trkpt lat="45.04149" lon="5.35398">
        <ele>671</ele>
        <time>2024-05-18T20:37:59Z</time>
      </trkpt>
      <trkpt lat="45.04244" lon="5.35311">
        <ele>661</ele>
        <time>2024-05-18T20:38:55Z</time>
      </trkpt>
      <trkpt lat="45.04336" lon="5.35252">
        <ele>643</ele>
        <time>2024-05-18T20:39:46Z</time>
      </trkpt>
      <trkpt lat="45.04293" lon="5.35099">
        <ele>610</ele>
        <time>2024-05-18T20:40:44Z</time>
      </trkpt>
      <trkpt lat="45.04292" lon="5.35014">
        <ele>568</ele>
        <time>2024-05-18T20:41:14Z</time>
      </trkpt>
      <trkpt lat="45.04245" lon="5.34926">
        <ele>542</ele>
        <time>2024-05-18T20:41:53Z</time>
      </trkpt>
      <trkpt lat="45.04271" lon="5.34908">
        <ele>524</ele>
        <time>2024-05-18T20:42:07Z</time>
      </trkpt>
      <trkpt lat="45.04249" lon="5.34808">
        <ele>490</ele>
        <time>2024-05-18T20:42:45Z</time>
      </trkpt>
      <trkpt lat="45.04204" lon="5.3472">
        <ele>467</ele>
        <time>2024-05-18T20:43:23Z</time>
      </trkpt>
      <trkpt lat="45.04117" lon="5.34578">
        <ele>435</ele>
        <time>2024-05-18T20:44:29Z</time>
      </trkpt>
      <trkpt lat="45.04245" lon="5.34553">
        <ele>403</ele>
        <time>2024-05-18T20:45:34Z</time>
      </trkpt>
      <trkpt lat="45.04347" lon="5.34519">
        <ele>376</ele>
        <time>2024-05-18T20:46:26Z</time>
      </trkpt>
      <trkpt lat="45.04451" lon="5.34569">
        <ele>357</ele>
        <time>2024-05-18T20:47:21Z</time>
      </trkpt>
      <trkpt lat="45.04484" lon="5.34569">
        <ele>346</ele>
        <time>2024-05-18T20:47:38Z</time>
      </trkpt>
      <trkpt lat="45.04516" lon="5.34522">
        <ele>331</ele>
        <time>2024-05-18T20:48:01Z</time>
      </trkpt>
      <trkpt lat="45.04501" lon="5.34418">
        <ele>319</ele>
        <time>2024-05-18T20:48:39Z</time>
      </trkpt>
    </trkseg>
  </trk>
</gpx>